createdAt,value
2019-05-02T00:02:13.571Z,16.33
2019-05-02T00:04:45.518Z,18.70
2019-05-02T00:07:20.227Z,20.13
2019-05-02T00:09:51.495Z,18.63
2019-05-02T00:12:24.190Z,16.33
2019-05-02T00:14:56.528Z,14.47
2019-05-02T00:17:30.426Z,17.37
2019-05-02T00:20:02.442Z,16.57
2019-05-02T00:22:34.722Z,23.03
2019-05-02T00:25:11.154Z,15.63
2019-05-02T00:27:41.739Z,15.27
2019-05-02T00:30:15.702Z,21.73
2019-05-02T00:32:47.675Z,18.20
2019-05-02T00:35:20.561Z,15.90
2019-05-02T00:37:52.517Z,18.77
2019-05-02T00:40:26.111Z,15.00
2019-05-02T00:42:59.622Z,20.33
2019-05-02T00:45:32.332Z,18.47
2019-05-02T00:48:06.746Z,16.67
2019-05-02T00:50:40.723Z,19.23
2019-05-02T00:53:13.635Z,14.23
2019-05-02T00:55:45.559Z,16.20
2019-05-02T00:58:17.572Z,24.03
2019-05-02T01:01:09.486Z,16.90
2019-05-02T01:03:47.074Z,20.47
2019-05-02T01:06:17.121Z,15.70
2019-05-02T01:08:49.050Z,17.67
2019-05-02T01:11:21.005Z,13.83
2019-05-02T01:13:55.835Z,17.60
2019-05-02T01:16:26.979Z,17.30
2019-05-02T01:18:59.195Z,17.23
2019-05-02T01:21:33.943Z,15.53
2019-05-02T01:24:04.980Z,14.57
2019-05-02T01:26:44.711Z,14.07
2019-05-02T01:29:29.865Z,15.10
2019-05-02T01:32:06.809Z,13.97
2019-05-02T01:34:54.423Z,15.00
2019-05-02T01:37:42.668Z,17.43
2019-05-02T01:40:17.751Z,13.60
2019-05-02T01:42:51.102Z,15.77
2019-05-02T01:45:23.550Z,14.30
2019-05-02T01:47:55.493Z,11.30
2019-05-02T01:50:28.966Z,13.17
2019-05-02T01:53:01.108Z,12.70
2019-05-02T01:55:33.056Z,13.50
2019-05-02T01:58:05.001Z,13.43
2019-05-02T02:00:40.837Z,13.33
2019-05-02T02:03:10.598Z,14.63
2019-05-02T02:05:43.007Z,16.90
2019-05-02T02:08:14.955Z,14.53
2019-05-02T02:10:50.683Z,13.10
2019-05-02T02:13:20.554Z,12.90
2019-05-02T02:15:52.526Z,16.80
2019-05-02T02:18:27.722Z,13.50
2019-05-02T02:21:03.647Z,14.37
2019-05-02T02:23:37.554Z,14.07
2019-05-02T02:26:14.037Z,21.57
2019-05-02T02:28:45.979Z,15.23
2019-05-02T02:31:21.408Z,16.97
2019-05-02T02:33:53.353Z,14.93
2019-05-02T02:36:31.272Z,16.07
2019-05-02T02:39:17.139Z,14.33
2019-05-02T02:41:52.382Z,19.03
2019-05-02T02:44:24.578Z,13.13
2019-05-02T02:46:56.553Z,21.20
2019-05-02T02:49:28.525Z,16.20
2019-05-02T02:52:04.861Z,16.20
2019-05-02T02:54:36.622Z,17.53
2019-05-02T02:59:39.100Z,13.03
2019-05-02T03:02:12.248Z,14.93
2019-05-02T03:04:46.421Z,15.13
2019-05-02T03:07:25.955Z,15.83
2019-05-02T03:09:52.249Z,16.53
2019-05-02T03:12:26.211Z,13.83
2019-05-02T03:14:59.784Z,17.57
2019-05-02T03:17:31.881Z,14.27
2019-05-02T03:20:08.568Z,17.27
2019-05-02T03:22:41.975Z,16.83
2019-05-02T03:25:18.142Z,19.53
2019-05-02T03:27:48.413Z,13.53
2019-05-02T03:30:32.356Z,16.30
2019-05-02T03:33:06.283Z,18.13
2019-05-02T03:35:42.917Z,20.33
2019-05-02T03:38:02.239Z,20.87
2019-05-02T03:40:38.976Z,17.13
2019-05-02T03:43:08.713Z,17.03
2019-05-02T03:45:43.128Z,17.17
2019-05-02T03:48:18.389Z,19.77
2019-05-02T03:50:49.251Z,19.33
2019-05-02T03:53:25.262Z,16.40
2019-05-02T03:55:58.175Z,15.40
2019-05-02T03:58:31.556Z,13.37
2019-05-02T04:01:04.048Z,22.13
2019-05-02T04:03:40.754Z,19.87
2019-05-02T04:06:13.804Z,17.23
2019-05-02T04:08:45.288Z,17.67
2019-05-02T04:11:20.983Z,20.07
2019-05-02T04:13:55.236Z,16.70
2019-05-02T04:16:29.592Z,15.40
2019-05-02T04:19:03.075Z,15.00
2019-05-02T04:21:35.738Z,18.87
2019-05-02T04:24:15.195Z,17.10
2019-05-02T04:26:51.990Z,16.77
2019-05-02T04:29:16.898Z,18.67
2019-05-02T04:31:48.907Z,16.27
2019-05-02T04:34:21.127Z,20.00
2019-05-02T04:37:01.319Z,18.77
2019-05-02T04:39:31.497Z,19.93
2019-05-02T04:42:12.940Z,26.80
2019-05-02T04:44:44.371Z,23.80
2019-05-02T04:47:17.546Z,19.63
2019-05-02T04:49:49.112Z,18.20
2019-05-02T04:52:22.665Z,28.70
2019-05-02T04:55:08.402Z,21.50
2019-05-02T04:57:37.003Z,16.47
2019-05-02T05:00:06.255Z,21.83
2019-05-02T05:02:39.353Z,25.27
2019-05-02T05:05:10.074Z,20.83
2019-05-02T05:07:46.137Z,28.47
2019-05-02T05:10:18.332Z,27.33
2019-05-02T05:12:49.560Z,22.83
2019-05-02T05:15:35.929Z,20.10
2019-05-02T05:17:55.181Z,28.13
2019-05-02T05:22:58.089Z,22.13
2019-05-02T05:25:38.129Z,27.80
2019-05-02T05:28:11.768Z,25.77
2019-05-02T05:30:46.701Z,28.60
2019-05-02T05:33:18.257Z,18.50
2019-05-02T05:35:52.525Z,17.03
2019-05-02T05:38:28.590Z,16.60
2019-05-02T05:40:58.114Z,13.23
2019-05-02T05:43:30.258Z,13.47
2019-05-02T05:46:12.364Z,13.07
2019-05-02T05:48:37.182Z,17.67
2019-05-02T05:51:11.827Z,19.07
2019-05-02T05:53:43.161Z,20.87
2019-05-02T05:56:15.114Z,21.33
2019-05-02T05:58:52.425Z,15.57
2019-05-02T06:01:26.135Z,14.47
2019-05-02T06:03:55.120Z,14.53
2019-05-02T06:06:27.543Z,15.37
2019-05-02T06:08:59.870Z,21.40
2019-05-02T06:11:32.171Z,23.87
2019-05-02T06:14:06.260Z,18.90
2019-05-02T06:16:38.686Z,20.50
2019-05-02T06:19:17.895Z,14.57
2019-05-02T06:21:47.785Z,18.57
2019-05-02T06:24:19.750Z,16.37
2019-05-02T06:26:52.002Z,17.07
2019-05-02T06:29:23.969Z,14.33
2019-05-02T06:31:59.000Z,13.77
2019-05-02T06:34:30.963Z,12.13
2019-05-02T06:37:03.249Z,13.27
2019-05-02T06:39:35.199Z,14.53
2019-05-02T06:42:07.519Z,15.80
2019-05-02T06:44:39.486Z,12.97
2019-05-02T06:47:11.503Z,12.03
2019-05-02T06:49:43.751Z,11.07
2019-05-02T06:52:15.700Z,12.73
2019-05-02T06:54:47.913Z,12.67
2019-05-02T06:57:24.089Z,13.37
2019-05-02T06:59:56.499Z,16.60
2019-05-02T07:02:33.589Z,11.80
2019-05-02T07:05:02.249Z,14.40
2019-05-02T07:07:36.998Z,11.90
2019-05-02T07:10:09.545Z,10.73
2019-05-02T07:12:41.506Z,11.67
2019-05-02T07:15:33.567Z,11.77
2019-05-02T07:18:10.692Z,10.80
2019-05-02T07:20:42.465Z,12.17
2019-05-02T07:23:16.240Z,14.43
2019-05-02T07:25:48.449Z,9.90
2019-05-02T07:28:20.404Z,14.77
2019-05-02T07:30:54.592Z,11.93
2019-05-02T07:33:26.003Z,11.77
2019-05-02T07:36:01.410Z,12.70
2019-05-02T07:38:33.583Z,14.17
2019-05-02T07:41:05.814Z,10.70
2019-05-02T07:43:39.500Z,15.83
2019-05-02T07:46:11.460Z,15.97
2019-05-02T07:48:43.686Z,17.07
2019-05-02T07:51:17.297Z,9.17
2019-05-02T07:53:49.829Z,12.93
2019-05-02T07:56:23.693Z,9.67
2019-05-02T07:58:55.715Z,11.77
2019-05-02T08:01:27.685Z,17.20
2019-05-02T08:04:04.247Z,12.83
2019-05-02T08:06:35.321Z,11.67
2019-05-02T08:09:09.611Z,12.33
2019-05-02T08:11:43.085Z,12.50
2019-05-02T08:14:15.052Z,11.43
2019-05-02T08:17:04.425Z,10.73
2019-05-02T08:19:23.894Z,12.37
2019-05-02T08:21:56.108Z,9.13
2019-05-02T08:24:28.062Z,13.20
2019-05-02T08:27:07.579Z,13.40
2019-05-02T08:29:40.072Z,12.27
2019-05-02T08:32:13.290Z,11.60
2019-05-02T08:34:50.928Z,11.70
2019-05-02T08:37:19.062Z,9.40
2019-05-02T08:39:51.020Z,11.87
2019-05-02T08:42:22.962Z,11.77
2019-05-02T08:44:56.239Z,15.57
2019-05-02T08:47:30.502Z,10.03
2019-05-02T08:50:02.782Z,9.83
2019-05-02T08:52:36.933Z,10.60
2019-05-02T08:55:09.755Z,13.07
2019-05-02T08:57:42.670Z,11.50
2019-05-02T09:00:15.830Z,10.90
2019-05-02T09:02:47.795Z,12.17
2019-05-02T09:05:19.746Z,10.43
2019-05-02T09:07:52.059Z,9.50
2019-05-02T09:10:24.012Z,10.83
2019-05-02T09:12:55.948Z,9.50
2019-05-02T09:15:27.899Z,9.77
2019-05-02T09:17:59.836Z,7.60
2019-05-02T09:20:31.984Z,10.43
2019-05-02T09:23:09.511Z,8.70
2019-05-02T09:25:42.837Z,9.10
2019-05-02T09:28:17.186Z,11.60
2019-05-02T09:30:48.034Z,12.10
2019-05-02T09:33:19.985Z,11.27
2019-05-02T09:35:51.959Z,10.27
2019-05-02T09:38:24.282Z,11.07
2019-05-02T09:40:59.060Z,9.57
2019-05-02T09:43:34.876Z,10.63
2019-05-02T09:46:07.362Z,8.13
2019-05-02T09:48:38.714Z,9.37
2019-05-02T09:51:16.756Z,9.70
2019-05-02T09:53:44.657Z,10.87
2019-05-02T09:56:16.619Z,14.00
2019-05-02T09:58:49.377Z,11.53
2019-05-02T10:01:29.363Z,12.57
2019-05-02T10:04:02.384Z,10.83
2019-05-02T10:06:34.722Z,15.63
2019-05-02T10:09:11.921Z,11.30
2019-05-02T10:11:43.431Z,8.73
2019-05-02T10:14:15.686Z,9.20
2019-05-02T10:16:47.887Z,10.33
2019-05-02T10:19:19.829Z,6.93
2019-05-02T10:21:55.026Z,8.13
2019-05-02T10:24:25.801Z,7.63
2019-05-02T10:27:04.209Z,10.87
2019-05-02T10:29:32.935Z,8.70
2019-05-02T10:32:07.688Z,7.03
2019-05-02T10:34:39.114Z,8.47
2019-05-02T10:37:13.987Z,6.70
2019-05-02T10:39:45.933Z,8.07
2019-05-02T10:42:18.542Z,6.23
2019-05-02T10:44:52.129Z,5.37
2019-05-02T10:47:24.265Z,8.73
2019-05-02T10:50:11.666Z,9.30
2019-05-02T10:52:44.100Z,9.80
2019-05-02T10:55:17.294Z,8.77
2019-05-02T10:57:52.169Z,7.00
2019-05-02T11:00:29.244Z,7.50
2019-05-02T11:03:06.781Z,7.00
2019-05-02T11:05:57.898Z,6.87
2019-05-02T11:08:27.804Z,4.77
2019-05-02T11:11:01.999Z,7.30
2019-05-02T11:13:38.140Z,8.43
2019-05-02T11:16:32.023Z,7.53
2019-05-02T11:19:07.948Z,11.43
2019-05-02T11:21:53.514Z,6.73
2019-05-02T11:24:14.450Z,7.30
2019-05-02T11:26:46.522Z,8.70
2019-05-02T11:29:18.470Z,7.37
2019-05-02T11:31:52.104Z,8.17
2019-05-02T11:34:24.374Z,10.00
2019-05-02T11:36:59.011Z,9.23
2019-05-02T11:39:37.498Z,8.80
2019-05-02T11:42:05.322Z,7.17
2019-05-02T11:44:37.295Z,5.73
2019-05-02T11:47:09.375Z,6.57
2019-05-02T11:49:42.528Z,14.07
2019-05-02T11:52:15.589Z,11.30
2019-05-02T11:54:48.662Z,9.20
2019-05-02T11:57:28.331Z,8.80
2019-05-02T11:59:59.328Z,10.53
2019-05-02T12:02:37.736Z,8.87
2019-05-02T12:05:12.789Z,7.17
2019-05-02T12:07:44.845Z,11.00
2019-05-02T12:10:21.636Z,12.07
2019-05-02T12:12:53.623Z,7.33
2019-05-02T12:15:26.202Z,11.73
2019-05-02T12:17:59.649Z,7.00
2019-05-02T12:20:33.930Z,14.87
2019-05-02T12:23:05.741Z,9.30
2019-05-02T12:25:37.668Z,10.43
2019-05-02T12:28:09.612Z,8.90
2019-05-02T12:30:42.014Z,7.87
2019-05-02T12:33:14.800Z,8.57
2019-05-02T12:35:46.751Z,14.03
2019-05-02T12:38:18.709Z,10.27
2019-05-02T12:40:52.060Z,7.83
2019-05-02T12:43:24.077Z,11.70
2019-05-02T12:45:56.020Z,7.17
2019-05-02T12:48:28.014Z,11.23
2019-05-02T12:51:01.911Z,9.00
2019-05-02T12:53:34.114Z,9.47
2019-05-02T12:56:06.127Z,11.07
2019-05-02T12:58:38.388Z,9.77
2019-05-02T13:01:12.290Z,11.77
2019-05-02T13:03:45.637Z,8.83
2019-05-02T13:06:17.578Z,10.07
2019-05-02T13:08:49.543Z,10.70
2019-05-02T13:11:32.123Z,10.33
2019-05-02T13:14:04.354Z,9.47
2019-05-02T13:16:36.375Z,11.63
2019-05-02T13:19:08.459Z,12.07
2019-05-02T13:21:44.993Z,10.23
2019-05-02T13:24:17.616Z,12.17
2019-05-02T13:26:53.945Z,11.77
2019-05-02T13:29:24.039Z,11.53
2019-05-02T13:32:03.557Z,11.57
2019-05-02T13:34:43.644Z,9.13
2019-05-02T13:37:15.410Z,11.30
2019-05-02T13:40:05.143Z,13.77
2019-05-02T13:42:37.164Z,11.43
2019-05-02T13:45:27.742Z,16.87
2019-05-02T13:47:59.775Z,13.03
2019-05-02T13:50:31.818Z,10.43
2019-05-02T13:53:03.820Z,10.63
2019-05-02T13:55:50.037Z,9.80
2019-05-02T13:58:29.337Z,10.33
2019-05-02T14:00:55.696Z,8.33
2019-05-02T14:03:27.656Z,10.87
2019-05-02T14:05:59.599Z,10.47
2019-05-02T14:08:39.400Z,13.50
2019-05-02T14:11:29.327Z,10.00
2019-05-02T14:14:01.969Z,10.93
2019-05-02T14:16:34.351Z,7.83
2019-05-02T14:19:06.298Z,8.00
2019-05-02T14:21:38.235Z,7.93
2019-05-02T14:24:11.785Z,8.70
2019-05-02T14:26:44.100Z,6.27
2019-05-02T14:29:16.488Z,9.10
2019-05-02T14:31:48.658Z,9.00
2019-05-02T14:34:34.478Z,7.00
2019-05-02T14:37:06.429Z,7.70
2019-05-02T14:39:38.404Z,6.27
2019-05-02T14:42:15.324Z,6.67
2019-05-02T14:45:04.431Z,6.67
2019-05-02T14:47:19.638Z,8.23
2019-05-02T14:49:52.250Z,7.73
2019-05-02T14:52:24.448Z,7.03
2019-05-02T14:54:56.373Z,7.17
2019-05-02T14:57:28.325Z,7.53
2019-05-02T15:00:03.098Z,10.97
2019-05-02T15:02:39.186Z,7.07
2019-05-02T15:05:12.686Z,8.00
2019-05-02T15:07:56.785Z,10.80
2019-05-02T15:10:28.981Z,10.47
2019-05-02T15:13:03.820Z,9.00
2019-05-02T15:15:40.786Z,9.97
2019-05-02T15:18:15.829Z,12.20
2019-05-02T15:20:42.429Z,10.80
2019-05-02T15:23:19.612Z,11.17
2019-05-02T15:25:52.529Z,10.07
2019-05-02T15:28:23.158Z,10.27
2019-05-02T15:31:05.710Z,11.53
2019-05-02T15:33:42.375Z,9.03
2019-05-02T15:36:14.350Z,11.80
2019-05-02T15:38:47.491Z,10.90
2019-05-02T15:41:19.544Z,8.80
2019-05-02T15:43:52.346Z,8.77
2019-05-02T15:46:28.139Z,7.57
2019-05-02T15:49:01.732Z,7.27
2019-05-02T15:51:32.866Z,6.27
2019-05-02T15:54:08.891Z,6.30
2019-05-02T15:57:00.793Z,5.70
2019-05-02T15:59:45.091Z,6.27
2019-05-02T16:02:09.532Z,3.77
2019-05-02T16:04:42.408Z,4.97
2019-05-02T16:07:14.369Z,5.13
2019-05-02T16:09:51.705Z,4.00
2019-05-02T16:12:22.232Z,8.87
2019-05-02T16:14:54.277Z,4.23
2019-05-02T16:17:27.857Z,4.20
2019-05-02T16:20:07.657Z,3.87
2019-05-02T16:22:38.317Z,4.47
2019-05-02T16:25:09.934Z,6.43
2019-05-02T16:27:52.731Z,3.03
2019-05-02T16:30:25.684Z,3.03
2019-05-02T16:32:59.358Z,3.00
2019-05-02T16:35:35.667Z,4.03
2019-05-02T16:38:07.611Z,6.20
2019-05-02T16:40:41.763Z,6.63
2019-05-02T16:43:13.280Z,3.53
2019-05-02T16:45:45.372Z,3.80
2019-05-02T16:48:18.997Z,5.57
2019-05-02T16:50:51.713Z,3.43
2019-05-02T16:53:26.215Z,5.47
2019-05-02T16:55:58.490Z,2.80
2019-05-02T16:58:31.917Z,4.10
2019-05-02T17:01:05.306Z,3.50
2019-05-02T17:03:37.619Z,6.27
2019-05-02T17:06:09.615Z,3.07
2019-05-02T17:08:58.328Z,3.80
2019-05-02T17:11:35.979Z,4.47
2019-05-02T17:14:12.124Z,3.53
2019-05-02T17:16:42.175Z,2.57
2019-05-02T17:19:14.187Z,4.97
2019-05-02T17:21:53.790Z,4.87
2019-05-02T17:24:24.597Z,4.07
2019-05-02T17:26:53.465Z,8.27
2019-05-02T17:29:25.417Z,6.37
2019-05-02T17:31:59.210Z,10.87
2019-05-02T17:34:34.835Z,6.27
2019-05-02T17:37:11.170Z,4.40
2019-05-02T17:39:42.690Z,8.67
2019-05-02T17:42:12.506Z,9.17
2019-05-02T17:44:44.942Z,7.77
2019-05-02T17:47:16.904Z,7.17
2019-05-02T17:49:57.906Z,8.23
2019-05-02T17:52:34.558Z,9.67
2019-05-02T17:55:07.823Z,8.77
2019-05-02T17:57:42.800Z,13.27
2019-05-02T18:00:17.806Z,6.23
2019-05-02T18:02:51.832Z,8.30
2019-05-02T18:05:26.543Z,7.23
2019-05-02T18:07:57.507Z,10.57
2019-05-02T18:10:29.830Z,7.77
2019-05-02T18:13:02.653Z,9.67
2019-05-02T18:15:36.294Z,11.37
2019-05-02T18:18:08.393Z,9.50
2019-05-02T18:20:42.878Z,8.33
2019-05-02T18:23:18.705Z,10.07
2019-05-02T18:25:47.990Z,9.23
2019-05-02T18:28:22.249Z,7.60
2019-05-02T18:30:57.131Z,10.60
2019-05-02T18:33:30.621Z,7.87
2019-05-02T18:36:02.890Z,9.67
2019-05-02T18:38:34.828Z,8.03
2019-05-02T18:41:07.955Z,10.50
2019-05-02T18:43:43.590Z,7.70
2019-05-02T18:46:13.702Z,7.40
2019-05-02T18:48:48.900Z,9.17
2019-05-02T18:51:19.322Z,9.33
2019-05-02T18:53:52.916Z,5.90
2019-05-02T18:56:25.093Z,14.47
2019-05-02T18:58:57.095Z,9.53
2019-05-02T19:01:29.461Z,9.07
2019-05-02T19:04:02.104Z,6.83
2019-05-02T19:06:36.207Z,8.40
2019-05-02T19:09:12.740Z,9.50
2019-05-02T19:11:44.813Z,6.50
2019-05-02T19:14:22.255Z,9.85
2019-05-02T19:16:52.126Z,10.77
2019-05-02T19:19:27.360Z,15.17
2019-05-02T19:21:57.977Z,10.37
2019-05-02T19:24:32.879Z,15.20
2019-05-02T19:27:04.351Z,9.47
2019-05-02T19:29:36.639Z,9.13
2019-05-02T19:32:12.238Z,8.20
2019-05-02T19:34:46.583Z,10.90
2019-05-02T19:37:18.655Z,10.13
2019-05-02T19:39:52.532Z,13.60
2019-05-02T19:42:26.239Z,12.83
2019-05-02T19:45:03.664Z,11.53
2019-05-02T19:47:32.579Z,8.97
2019-05-02T19:50:15.163Z,9.63
2019-05-02T19:52:47.119Z,13.07
2019-05-02T19:55:20.096Z,10.27
2019-05-02T19:57:56.619Z,16.13
2019-05-02T20:00:29.176Z,5.33
2019-05-02T20:03:04.214Z,9.33
2019-05-02T20:05:36.585Z,11.33
2019-05-02T20:08:09.747Z,6.97
2019-05-02T20:10:42.650Z,17.77
2019-05-02T20:13:14.708Z,9.13
2019-05-02T20:15:48.335Z,9.50
2019-05-02T20:18:20.282Z,10.63
2019-05-02T20:21:23.152Z,11.83
2019-05-02T20:23:46.241Z,10.33
2019-05-02T20:28:49.544Z,9.50
2019-05-02T20:31:21.740Z,16.93
2019-05-02T20:33:53.913Z,13.23
2019-05-02T20:36:25.863Z,17.87
2019-05-02T20:39:02.302Z,15.77
2019-05-02T20:41:34.595Z,14.97
2019-05-02T20:44:06.638Z,10.10
2019-05-02T20:46:38.564Z,8.87
2019-05-02T20:49:12.611Z,7.00
2019-05-02T20:51:44.409Z,15.13
2019-05-02T20:54:16.365Z,7.80
2019-05-02T20:56:48.295Z,12.00
2019-05-02T20:59:21.827Z,16.47
2019-05-02T21:01:53.882Z,9.67
2019-05-02T21:04:25.866Z,14.03
2019-05-02T21:07:09.129Z,10.90
2019-05-02T21:09:54.992Z,9.80
2019-05-02T21:12:27.058Z,10.90
2019-05-02T21:14:58.985Z,17.70
2019-05-02T21:17:32.695Z,13.90
2019-05-02T21:20:08.262Z,16.03
2019-05-02T21:22:42.050Z,12.43
2019-05-02T21:25:14.239Z,10.67
2019-05-02T21:27:46.186Z,13.23
2019-05-02T21:30:23.067Z,9.90
2019-05-02T21:32:57.704Z,17.90
2019-05-02T21:35:31.776Z,15.57
2019-05-02T21:38:03.714Z,12.93
2019-05-02T21:40:35.824Z,15.27
2019-05-02T21:43:07.832Z,11.50
2019-05-02T21:45:39.787Z,14.03
2019-05-02T21:48:12.034Z,14.77
2019-05-02T21:50:56.119Z,17.17
2019-05-02T21:53:49.156Z,13.93
2019-05-02T21:56:17.528Z,9.83
2019-05-02T21:59:03.296Z,14.03
2019-05-02T22:01:42.064Z,12.30
2019-05-02T22:04:14.084Z,15.07
2019-05-02T22:06:47.742Z,9.77
2019-05-02T22:09:22.856Z,13.53
2019-05-02T22:11:55.990Z,11.30
2019-05-02T22:14:28.413Z,10.17
2019-05-02T22:17:02.333Z,14.07
2019-05-02T22:19:36.027Z,11.23
2019-05-02T22:22:08.113Z,12.10
2019-05-02T22:24:42.101Z,12.67
2019-05-02T22:27:14.304Z,14.03
2019-05-02T22:29:47.789Z,9.17
2019-05-02T22:32:19.730Z,13.73
2019-05-02T22:34:55.901Z,16.10
2019-05-02T22:37:28.834Z,12.13
2019-05-02T22:40:03.939Z,16.23
2019-05-02T22:42:36.109Z,15.03
2019-05-02T22:45:09.381Z,13.17
2019-05-02T22:47:42.603Z,15.83
2019-05-02T22:50:14.810Z,19.33
2019-05-02T22:52:47.149Z,13.20
2019-05-02T22:55:19.108Z,12.40
2019-05-02T22:57:53.007Z,13.47
2019-05-02T23:00:26.989Z,12.53
2019-05-02T23:03:01.852Z,16.37
2019-05-02T23:05:37.253Z,19.93
2019-05-02T23:08:09.145Z,26.20
2019-05-02T23:10:43.994Z,12.50
2019-05-02T23:13:17.545Z,13.87
2019-05-02T23:15:49.520Z,18.23
2019-05-02T23:18:22.797Z,15.43
2019-05-02T23:20:54.797Z,15.97
2019-05-02T23:23:26.733Z,16.53
2019-05-02T23:26:15.526Z,17.33
2019-05-02T23:28:58.253Z,14.80
2019-05-02T23:31:31.753Z,14.80
2019-05-02T23:34:03.863Z,18.20
2019-05-02T23:36:35.790Z,17.23
2019-05-02T23:39:12.465Z,12.63
2019-05-02T23:41:44.671Z,19.23
2019-05-02T23:44:16.643Z,18.37
2019-05-02T23:46:48.570Z,13.27
2019-05-02T23:49:22.010Z,15.50
2019-05-02T23:51:54.272Z,18.70
2019-05-02T23:54:26.315Z,14.53
2019-05-02T23:56:58.267Z,13.20
2019-05-02T23:59:31.794Z,21.00
